createdAt,value
2023-05-10T00:01:21.872Z,58.31
2023-05-10T00:03:48.289Z,58.62
2023-05-10T00:06:14.732Z,58.47
2023-05-10T00:08:40.997Z,58.05
2023-05-10T00:11:07.283Z,58.32
2023-05-10T00:13:33.583Z,58.76
2023-05-10T00:15:59.943Z,59.03
2023-05-10T00:18:26.236Z,58.93
2023-05-10T00:20:52.522Z,57.58
2023-05-10T00:23:18.837Z,57.32
2023-05-10T00:25:45.222Z,57.13
2023-05-10T00:28:11.524Z,58.34
2023-05-10T00:30:37.814Z,60.00
2023-05-10T00:33:04.172Z,60.11
2023-05-10T00:35:30.567Z,59.59
2023-05-10T00:37:56.852Z,59.73
2023-05-10T00:40:23.137Z,59.18
2023-05-10T00:42:49.469Z,58.44
2023-05-10T00:45:15.846Z,58.14
2023-05-10T00:47:42.202Z,59.72
2023-05-10T00:50:09.722Z,59.77
2023-05-10T00:52:36.020Z,59.31
2023-05-10T00:55:02.305Z,59.03
2023-05-10T00:57:28.599Z,59.62
2023-05-10T00:59:54.893Z,60.15
2023-05-10T01:02:21.242Z,59.89
2023-05-10T01:04:48.216Z,60.37
2023-05-10T01:07:14.538Z,58.78
2023-05-10T01:09:40.858Z,57.60
2023-05-10T01:12:08.231Z,57.00
2023-05-10T01:14:35.298Z,57.62
2023-05-10T01:17:01.585Z,57.48
2023-05-10T01:19:28.130Z,57.36
2023-05-10T01:21:54.403Z,57.16
2023-05-10T01:24:27.332Z,56.57
2023-05-10T01:26:53.602Z,58.23
2023-05-10T01:29:25.682Z,58.44
2023-05-10T01:32:04.604Z,57.05
2023-05-10T01:34:39.991Z,56.68
2023-05-10T01:37:07.294Z,56.55
2023-05-10T01:39:34.728Z,56.53
2023-05-10T01:42:01.265Z,56.83
2023-05-10T01:44:30.865Z,56.76
2023-05-10T01:47:14.191Z,56.91
2023-05-10T01:49:47.466Z,57.84
2023-05-10T01:52:14.125Z,58.16
2023-05-10T01:54:42.520Z,58.65
2023-05-10T01:57:10.725Z,59.23
2023-05-10T01:59:37.915Z,59.29
2023-05-10T02:02:04.196Z,59.56
2023-05-10T02:04:30.740Z,59.66
2023-05-10T02:06:57.062Z,59.32
2023-05-10T02:09:23.336Z,57.97
2023-05-10T02:11:49.655Z,57.18
2023-05-10T02:14:16.228Z,57.15
2023-05-10T02:16:42.724Z,57.48
2023-05-10T02:19:09.921Z,57.02
2023-05-10T02:21:36.200Z,57.28
2023-05-10T02:24:02.686Z,56.81
2023-05-10T02:26:28.993Z,55.98
2023-05-10T02:28:55.708Z,56.13
2023-05-10T02:31:22.075Z,55.71
2023-05-10T02:33:48.395Z,55.61
2023-05-10T02:36:14.721Z,56.03
2023-05-10T02:38:41.399Z,55.41
2023-05-10T02:41:08.096Z,55.84
2023-05-10T02:43:34.642Z,55.38
2023-05-10T02:46:00.984Z,56.13
2023-05-10T02:48:27.431Z,56.01
2023-05-10T02:50:53.723Z,55.82
2023-05-10T02:53:21.845Z,56.30
2023-05-10T02:55:50.081Z,56.80
2023-05-10T02:58:16.493Z,57.83
2023-05-10T03:00:42.837Z,57.50
2023-05-10T03:03:09.336Z,57.07
2023-05-10T03:05:35.669Z,56.69
2023-05-10T03:08:05.087Z,55.93
2023-05-10T03:10:31.730Z,55.41
2023-05-10T03:13:02.817Z,55.32
2023-05-10T03:15:39.103Z,54.99
2023-05-10T03:18:13.928Z,54.77
2023-05-10T03:20:42.482Z,54.89
2023-05-10T03:23:12.161Z,54.71
2023-05-10T03:25:38.461Z,55.64
2023-05-10T03:28:04.759Z,56.15
2023-05-10T03:30:31.043Z,55.92
2023-05-10T03:32:57.967Z,55.37
2023-05-10T03:35:24.337Z,55.60
2023-05-10T03:37:50.636Z,54.45
2023-05-10T03:40:17.056Z,54.10
2023-05-10T03:42:43.577Z,54.26
2023-05-10T03:45:10.620Z,53.18
2023-05-10T03:47:36.935Z,52.96
2023-05-10T03:50:03.394Z,53.00
2023-05-10T03:52:29.774Z,53.09
2023-05-10T03:54:56.056Z,52.50
2023-05-10T03:57:22.332Z,53.27
2023-05-10T03:59:48.605Z,52.77
2023-05-10T04:02:14.973Z,52.81
2023-05-10T04:04:41.377Z,53.71
2023-05-10T04:07:07.708Z,54.88
2023-05-10T04:09:34.015Z,55.58
2023-05-10T04:12:01.255Z,55.48
2023-05-10T04:14:27.572Z,54.64
2023-05-10T04:16:53.883Z,54.93
2023-05-10T04:19:20.181Z,55.03
2023-05-10T04:21:46.609Z,54.48
2023-05-10T04:24:13.570Z,53.80
2023-05-10T04:26:39.918Z,53.43
2023-05-10T04:29:06.201Z,53.53
2023-05-10T04:31:32.546Z,54.11
2023-05-10T04:33:58.828Z,54.33
2023-05-10T04:36:25.115Z,54.24
2023-05-10T04:38:51.386Z,53.94
2023-05-10T04:41:17.673Z,54.34
2023-05-10T04:43:44.040Z,55.21
2023-05-10T04:46:10.473Z,55.85
2023-05-10T04:48:36.832Z,56.60
2023-05-10T04:51:04.780Z,57.09
2023-05-10T04:53:31.076Z,56.27
2023-05-10T04:55:57.373Z,56.28
2023-05-10T04:58:23.673Z,56.78
2023-05-10T05:00:49.981Z,55.66
2023-05-10T05:03:16.647Z,54.93
2023-05-10T05:05:43.063Z,54.31
2023-05-10T05:08:09.850Z,54.23
2023-05-10T05:10:36.146Z,54.05
2023-05-10T05:13:02.488Z,53.66
2023-05-10T05:15:28.882Z,54.33
2023-05-10T05:17:55.336Z,54.98
2023-05-10T05:20:22.136Z,55.32
2023-05-10T05:22:48.433Z,55.40
2023-05-10T05:25:16.006Z,54.77
2023-05-10T05:27:42.287Z,54.87
2023-05-10T05:30:08.834Z,55.46
2023-05-10T05:32:35.190Z,59.84
2023-05-10T05:35:01.526Z,58.56
2023-05-10T05:37:27.805Z,57.85
2023-05-10T05:39:55.797Z,56.72
2023-05-10T05:42:22.129Z,55.82
2023-05-10T05:44:48.462Z,55.32
2023-05-10T05:47:14.882Z,55.00
2023-05-10T05:49:41.418Z,55.12
2023-05-10T05:52:07.772Z,56.05
2023-05-10T05:54:34.165Z,56.63
2023-05-10T05:57:01.437Z,56.10
2023-05-10T05:59:28.088Z,56.73
2023-05-10T06:01:54.429Z,59.21
2023-05-10T06:04:20.913Z,58.04
2023-05-10T06:06:47.276Z,57.31
2023-05-10T06:09:13.648Z,56.80
2023-05-10T06:11:40.012Z,55.87
2023-05-10T06:14:07.977Z,56.18
2023-05-10T06:16:37.042Z,56.08
2023-05-10T06:19:03.584Z,56.70
2023-05-10T06:21:29.969Z,58.36
2023-05-10T06:23:56.271Z,57.77
2023-05-10T06:26:22.560Z,56.96
2023-05-10T06:28:48.827Z,56.87
2023-05-10T06:31:15.187Z,55.85
2023-05-10T06:33:41.685Z,55.43
2023-05-10T06:36:08.115Z,55.60
2023-05-10T06:38:34.559Z,56.16
2023-05-10T06:41:01.550Z,57.76
2023-05-10T06:43:29.481Z,57.59
2023-05-10T06:45:55.857Z,56.63
2023-05-10T06:48:22.275Z,56.84
2023-05-10T06:50:48.593Z,60.80
2023-05-10T06:53:14.894Z,60.01
2023-05-10T06:55:41.216Z,60.27
2023-05-10T06:58:07.565Z,58.71
2023-05-10T07:00:33.885Z,58.29
2023-05-10T07:03:00.319Z,61.72
2023-05-10T07:05:28.843Z,60.75
2023-05-10T07:07:55.425Z,59.27
2023-05-10T07:10:21.724Z,60.83
2023-05-10T07:12:48.113Z,62.51
2023-05-10T07:15:14.644Z,62.55
2023-05-10T07:17:43.264Z,62.44
2023-05-10T07:20:11.332Z,62.06
2023-05-10T07:22:37.649Z,61.52
2023-05-10T07:25:04.058Z,63.87
2023-05-10T07:27:30.429Z,62.40
2023-05-10T07:29:57.493Z,62.38
2023-05-10T07:32:24.072Z,64.69
2023-05-10T07:34:50.453Z,63.15
2023-05-10T07:37:16.756Z,63.23
2023-05-10T07:39:43.038Z,62.51
2023-05-10T07:42:09.566Z,63.99
2023-05-10T07:44:35.917Z,62.41
2023-05-10T07:47:02.232Z,64.09
2023-05-10T07:49:28.523Z,64.65
2023-05-10T07:51:54.864Z,65.38
2023-05-10T07:54:21.475Z,64.72
2023-05-10T07:56:48.129Z,65.98
2023-05-10T07:59:18.016Z,65.22
2023-05-10T08:01:44.322Z,63.44
2023-05-10T08:04:10.786Z,64.05
2023-05-10T08:06:37.146Z,64.24
2023-05-10T08:09:03.505Z,64.21
2023-05-10T08:11:29.855Z,64.06
2023-05-10T08:13:56.186Z,62.74
2023-05-10T08:16:22.595Z,62.92
2023-05-10T08:18:50.012Z,61.97
2023-05-10T08:21:16.576Z,60.98
2023-05-10T08:23:44.529Z,60.70
2023-05-10T08:26:11.316Z,60.71
2023-05-10T08:28:37.651Z,62.06
2023-05-10T08:31:04.020Z,61.04
2023-05-10T08:33:30.460Z,61.51
2023-05-10T08:35:56.753Z,62.48
2023-05-10T08:38:23.082Z,62.95
2023-05-10T08:40:50.372Z,63.92
2023-05-10T08:43:16.855Z,63.05
2023-05-10T08:45:46.145Z,61.41
2023-05-10T08:48:12.770Z,61.35
2023-05-10T08:50:42.296Z,60.90
2023-05-10T08:53:11.962Z,62.44
2023-05-10T08:55:39.410Z,61.68
2023-05-10T08:58:06.011Z,60.30
2023-05-10T09:00:32.311Z,61.23
2023-05-10T09:02:58.972Z,59.82
2023-05-10T09:05:25.475Z,60.37
2023-05-10T09:07:51.818Z,58.18
2023-05-10T09:10:18.359Z,60.26
2023-05-10T09:12:45.056Z,55.02
2023-05-10T09:15:11.428Z,57.43
2023-05-10T09:17:38.076Z,56.44
2023-05-10T09:20:04.956Z,57.88
2023-05-10T09:22:31.529Z,55.46
2023-05-10T09:25:10.119Z,58.09
2023-05-10T09:27:36.587Z,56.84
2023-05-10T09:30:03.476Z,58.28
2023-05-10T09:32:45.935Z,58.24
2023-05-10T09:35:12.329Z,59.02
2023-05-10T09:37:42.400Z,58.12
2023-05-10T09:40:09.518Z,56.05
2023-05-10T09:42:36.030Z,57.14
2023-05-10T09:45:03.386Z,55.10
2023-05-10T09:47:29.831Z,55.05
2023-05-10T09:49:58.783Z,55.25
2023-05-10T09:52:25.061Z,56.13
2023-05-10T09:54:54.698Z,54.26
2023-05-10T09:57:21.825Z,54.10
2023-05-10T09:59:48.185Z,54.61
2023-05-10T10:02:14.486Z,53.68
2023-05-10T10:04:41.644Z,53.04
2023-05-10T10:07:07.972Z,52.38
2023-05-10T10:09:34.668Z,51.88
2023-05-10T10:12:01.157Z,54.33
2023-05-10T10:14:27.460Z,53.38
2023-05-10T10:17:06.593Z,52.67
2023-05-10T10:19:34.465Z,52.71
2023-05-10T10:22:06.465Z,50.66
2023-05-10T10:24:32.783Z,51.07
2023-05-10T10:27:05.618Z,50.15
2023-05-10T10:29:45.318Z,50.35
2023-05-10T10:32:21.348Z,53.11
2023-05-10T10:34:47.660Z,51.08
2023-05-10T10:37:14.076Z,50.10
2023-05-10T10:39:40.376Z,49.60
2023-05-10T10:42:06.706Z,45.25
2023-05-10T10:44:36.075Z,45.01
2023-05-10T10:47:26.569Z,44.97
2023-05-10T10:49:53.709Z,47.06
2023-05-10T10:52:24.223Z,49.46
2023-05-10T10:54:51.313Z,48.12
2023-05-10T10:57:20.002Z,47.78
2023-05-10T10:59:47.164Z,46.43
2023-05-10T11:02:32.222Z,47.14
2023-05-10T11:04:58.557Z,46.94
2023-05-10T11:07:25.434Z,46.41
2023-05-10T11:09:52.562Z,48.63
2023-05-10T11:12:18.840Z,47.59
2023-05-10T11:14:50.539Z,46.04
2023-05-10T11:17:23.314Z,47.50
2023-05-10T11:20:10.014Z,48.78
2023-05-10T11:22:54.594Z,50.14
2023-05-10T11:25:21.226Z,49.47
2023-05-10T11:27:50.602Z,49.87
2023-05-10T11:30:17.117Z,51.31
2023-05-10T11:32:43.698Z,50.46
2023-05-10T11:35:10.777Z,50.78
2023-05-10T11:37:37.098Z,51.32
2023-05-10T11:40:04.060Z,50.61
2023-05-10T11:42:30.968Z,48.55
2023-05-10T11:44:57.262Z,48.53
2023-05-10T11:47:23.578Z,51.37
2023-05-10T11:49:50.053Z,51.15
2023-05-10T11:52:16.349Z,52.25
2023-05-10T11:54:47.140Z,52.72
2023-05-10T11:57:13.538Z,54.08
2023-05-10T11:59:41.739Z,54.39
2023-05-10T12:02:09.407Z,53.47
2023-05-10T12:04:35.799Z,55.43
2023-05-10T12:07:02.204Z,54.35
2023-05-10T12:09:42.687Z,53.44
2023-05-10T12:12:09.795Z,52.33
2023-05-10T12:14:36.253Z,51.01
2023-05-10T12:17:02.518Z,51.82
2023-05-10T12:19:28.794Z,50.40
2023-05-10T12:21:55.152Z,49.47
2023-05-10T12:24:22.492Z,50.48
2023-05-10T12:26:49.306Z,50.53
2023-05-10T12:29:16.731Z,48.19
2023-05-10T12:31:55.384Z,48.42
2023-05-10T12:34:24.775Z,48.94
2023-05-10T12:36:51.869Z,49.01
2023-05-10T12:39:18.188Z,48.92
2023-05-10T12:41:44.478Z,47.89
2023-05-10T12:44:11.053Z,47.66
2023-05-10T12:46:37.352Z,46.26
2023-05-10T12:49:09.017Z,46.44
2023-05-10T12:51:36.165Z,46.53
2023-05-10T12:54:03.280Z,45.48
2023-05-10T12:56:29.581Z,47.18
2023-05-10T12:58:55.918Z,46.32
2023-05-10T13:01:22.364Z,45.04
2023-05-10T13:03:48.740Z,45.04
2023-05-10T13:06:15.070Z,46.28
2023-05-10T13:08:41.366Z,46.99
2023-05-10T13:11:07.650Z,43.45
2023-05-10T13:13:33.925Z,44.22
2023-05-10T13:16:00.317Z,41.65
2023-05-10T13:18:27.347Z,43.43
2023-05-10T13:20:54.471Z,42.80
2023-05-10T13:23:21.001Z,42.58
2023-05-10T13:25:47.347Z,42.35
2023-05-10T13:28:13.669Z,42.68
2023-05-10T13:30:40.026Z,42.03
2023-05-10T13:33:06.544Z,42.88
2023-05-10T13:35:32.938Z,44.24
2023-05-10T13:37:59.462Z,42.91
2023-05-10T13:40:25.848Z,43.10
2023-05-10T13:42:52.190Z,44.67
2023-05-10T13:45:18.825Z,43.72
2023-05-10T13:47:45.396Z,44.13
2023-05-10T13:50:11.757Z,42.89
2023-05-10T13:52:38.300Z,40.98
2023-05-10T13:55:04.853Z,40.17
2023-05-10T13:57:31.432Z,38.20
2023-05-10T13:59:58.284Z,40.55
2023-05-10T14:02:25.497Z,40.21
2023-05-10T14:04:52.002Z,40.20
2023-05-10T14:07:18.653Z,38.96
2023-05-10T14:09:44.949Z,38.46
2023-05-10T14:12:11.356Z,38.79
2023-05-10T14:14:37.673Z,39.15
2023-05-10T14:17:03.996Z,37.94
2023-05-10T14:19:33.372Z,37.27
2023-05-10T14:21:59.669Z,38.19
2023-05-10T14:24:26.139Z,37.04
2023-05-10T14:26:54.636Z,37.09
2023-05-10T14:29:21.423Z,37.53
2023-05-10T14:31:47.825Z,38.81
2023-05-10T14:34:14.108Z,37.88
2023-05-10T14:36:41.091Z,36.95
2023-05-10T14:39:07.696Z,39.44
2023-05-10T14:41:34.011Z,37.51
2023-05-10T14:44:00.300Z,38.52
2023-05-10T14:46:27.462Z,38.64
2023-05-10T14:48:53.890Z,38.63
2023-05-10T14:51:22.703Z,38.76
2023-05-10T14:53:52.025Z,38.99
2023-05-10T14:56:18.359Z,36.86
2023-05-10T14:58:44.686Z,38.26
2023-05-10T15:01:11.618Z,37.96
2023-05-10T15:03:38.635Z,36.53
2023-05-10T15:06:05.984Z,37.35
2023-05-10T15:08:32.261Z,39.54
2023-05-10T15:10:58.617Z,39.03
2023-05-10T15:13:24.919Z,36.63
2023-05-10T15:15:51.205Z,37.01
2023-05-10T15:18:17.761Z,37.21
2023-05-10T15:20:44.115Z,37.96
2023-05-10T15:23:10.405Z,38.96
2023-05-10T15:25:38.074Z,40.32
2023-05-10T15:28:04.860Z,37.63
2023-05-10T15:30:31.149Z,36.82
2023-05-10T15:32:57.607Z,38.85
2023-05-10T15:35:23.927Z,37.57
2023-05-10T15:37:50.371Z,37.32
2023-05-10T15:40:16.672Z,37.04
2023-05-10T15:42:42.948Z,36.25
2023-05-10T15:45:09.590Z,36.96
2023-05-10T15:47:36.003Z,37.51
2023-05-10T15:50:02.331Z,37.42
2023-05-10T15:52:28.624Z,38.04
2023-05-10T15:54:55.207Z,36.79
2023-05-10T15:57:21.541Z,36.96
2023-05-10T15:59:47.834Z,39.04
2023-05-10T16:02:14.404Z,39.29
2023-05-10T16:04:40.704Z,40.28
2023-05-10T16:07:07.010Z,41.96
2023-05-10T16:09:33.306Z,40.82
2023-05-10T16:11:59.612Z,41.27
2023-05-10T16:14:26.050Z,40.85
2023-05-10T16:16:52.506Z,41.55
2023-05-10T16:19:18.991Z,41.76
2023-05-10T16:21:45.356Z,42.18
2023-05-10T16:24:11.638Z,41.24
2023-05-10T16:26:40.874Z,40.92
2023-05-10T16:29:07.957Z,41.60
2023-05-10T16:31:34.282Z,42.00
2023-05-10T16:34:00.698Z,41.12
2023-05-10T16:36:27.476Z,40.83
2023-05-10T16:38:53.922Z,39.56
2023-05-10T16:41:21.243Z,40.60
2023-05-10T16:43:47.550Z,41.32
2023-05-10T16:46:13.855Z,42.03
2023-05-10T16:48:40.445Z,42.33
2023-05-10T16:51:06.812Z,41.38
2023-05-10T16:53:33.730Z,42.55
2023-05-10T16:56:00.075Z,41.61
2023-05-10T16:58:26.458Z,41.84
2023-05-10T17:00:53.026Z,41.96
2023-05-10T17:03:19.565Z,41.24
2023-05-10T17:05:46.002Z,41.74
2023-05-10T17:08:12.310Z,40.88
2023-05-10T17:10:41.677Z,39.80
2023-05-10T17:13:10.056Z,40.72
2023-05-10T17:15:37.599Z,40.04
2023-05-10T17:18:04.630Z,41.80
2023-05-10T17:20:30.958Z,39.63
2023-05-10T17:22:57.243Z,40.80
2023-05-10T17:25:23.522Z,40.23
2023-05-10T17:27:49.818Z,39.64
2023-05-10T17:30:16.858Z,39.36
2023-05-10T17:32:43.356Z,39.82
2023-05-10T17:35:09.789Z,42.13
2023-05-10T17:37:36.119Z,41.21
2023-05-10T17:40:03.818Z,41.09
2023-05-10T17:42:30.123Z,40.73
2023-05-10T17:44:56.424Z,40.41
2023-05-10T17:47:22.822Z,42.04
2023-05-10T17:49:49.123Z,40.37
2023-05-10T17:52:15.424Z,41.62
2023-05-10T17:54:41.732Z,41.40
2023-05-10T17:57:08.043Z,40.37
2023-05-10T17:59:34.341Z,40.79
2023-05-10T18:02:01.167Z,40.55
2023-05-10T18:04:27.697Z,40.19
2023-05-10T18:07:00.975Z,40.34
2023-05-10T18:09:30.444Z,40.28
2023-05-10T18:11:56.736Z,39.98
2023-05-10T18:14:39.081Z,40.37
2023-05-10T18:17:07.205Z,40.96
2023-05-10T18:19:33.590Z,40.27
2023-05-10T18:21:59.907Z,39.78
2023-05-10T18:24:37.676Z,39.66
2023-05-10T18:27:05.859Z,39.13
2023-05-10T18:29:32.236Z,38.75
2023-05-10T18:31:58.507Z,40.29
2023-05-10T18:34:24.843Z,40.96
2023-05-10T18:36:51.347Z,40.26
2023-05-10T18:39:18.344Z,42.25
2023-05-10T18:41:45.603Z,43.67
2023-05-10T18:44:11.902Z,47.28
2023-05-10T18:46:38.343Z,48.76
2023-05-10T18:49:05.734Z,47.41
2023-05-10T18:51:32.105Z,48.91
2023-05-10T18:53:58.453Z,47.61
2023-05-10T18:56:24.816Z,48.46
2023-05-10T18:58:51.266Z,47.69
2023-05-10T19:01:17.814Z,47.78
2023-05-10T19:03:44.172Z,49.37
2023-05-10T19:06:10.914Z,48.80
2023-05-10T19:08:37.379Z,50.04
2023-05-10T19:11:03.716Z,50.65
2023-05-10T19:13:30.242Z,50.42
2023-05-10T19:16:04.874Z,51.06
2023-05-10T19:18:32.700Z,53.36
2023-05-10T19:21:02.362Z,50.87
2023-05-10T19:23:28.665Z,51.43
2023-05-10T19:25:54.971Z,49.99
2023-05-10T19:28:21.493Z,49.78
2023-05-10T19:30:49.547Z,48.82
2023-05-10T19:33:17.295Z,48.79
2023-05-10T19:35:43.694Z,49.55
2023-05-10T19:38:10.118Z,50.35
2023-05-10T19:40:36.439Z,49.67
2023-05-10T19:43:03.006Z,49.86
2023-05-10T19:45:29.346Z,51.04
2023-05-10T19:47:56.247Z,51.97
2023-05-10T19:50:22.562Z,50.99
2023-05-10T19:52:49.445Z,50.10
2023-05-10T19:55:24.888Z,50.37
2023-05-10T19:57:51.694Z,49.96
2023-05-10T20:00:17.966Z,49.75
2023-05-10T20:02:44.338Z,49.25
2023-05-10T20:05:10.629Z,50.57
2023-05-10T20:07:37.119Z,53.59
2023-05-10T20:10:03.936Z,51.34
2023-05-10T20:12:30.258Z,50.93
2023-05-10T20:14:56.569Z,50.98
2023-05-10T20:17:22.895Z,51.57
2023-05-10T20:19:49.172Z,53.99
2023-05-10T20:22:15.448Z,52.65
2023-05-10T20:24:41.877Z,52.12
2023-05-10T20:27:08.222Z,51.46
2023-05-10T20:29:34.514Z,50.88
2023-05-10T20:32:00.987Z,52.09
2023-05-10T20:34:27.263Z,51.87
2023-05-10T20:36:53.557Z,50.94
2023-05-10T20:39:19.846Z,51.31
2023-05-10T20:41:46.826Z,50.26
2023-05-10T20:44:13.118Z,49.74
2023-05-10T20:46:39.502Z,49.94
2023-05-10T20:49:06.000Z,49.96
2023-05-10T20:51:33.168Z,49.81
2023-05-10T20:54:01.545Z,49.47
2023-05-10T20:56:27.829Z,49.64
2023-05-10T20:58:54.136Z,48.73
2023-05-10T21:01:20.522Z,50.90
2023-05-10T21:03:46.846Z,50.28
2023-05-10T21:06:13.115Z,49.94
2023-05-10T21:08:39.393Z,49.80
2023-05-10T21:11:05.772Z,48.96
2023-05-10T21:13:32.412Z,48.90
2023-05-10T21:15:58.756Z,49.23
2023-05-10T21:18:25.329Z,48.52
2023-05-10T21:20:51.746Z,48.61
2023-05-10T21:23:18.087Z,48.35
2023-05-10T21:25:44.364Z,48.68
2023-05-10T21:28:10.663Z,48.70
2023-05-10T21:30:36.943Z,49.76
2023-05-10T21:33:03.484Z,49.64
2023-05-10T21:35:30.001Z,48.87
2023-05-10T21:37:56.414Z,48.01
2023-05-10T21:40:22.766Z,47.89
2023-05-10T21:42:49.405Z,48.05
2023-05-10T21:45:16.303Z,47.36
2023-05-10T21:47:42.627Z,47.83
2023-05-10T21:50:10.331Z,47.44
2023-05-10T21:52:37.033Z,48.22
2023-05-10T21:55:04.251Z,48.13
2023-05-10T21:57:30.694Z,47.76
2023-05-10T21:59:56.955Z,47.06
2023-05-10T22:02:23.421Z,46.87
2023-05-10T22:04:50.343Z,46.97
2023-05-10T22:07:16.912Z,47.20
2023-05-10T22:09:43.568Z,48.16
2023-05-10T22:12:09.880Z,47.64
2023-05-10T22:14:36.162Z,47.21
2023-05-10T22:17:02.478Z,47.90
2023-05-10T22:19:28.830Z,47.59
2023-05-10T22:21:55.336Z,47.84
2023-05-10T22:24:21.746Z,47.49
2023-05-10T22:26:48.053Z,47.24
2023-05-10T22:29:14.363Z,47.43
2023-05-10T22:31:40.881Z,48.18
2023-05-10T22:34:07.355Z,48.52
2023-05-10T22:36:33.653Z,49.36
2023-05-10T22:38:59.964Z,48.83
2023-05-10T22:41:26.370Z,49.09
2023-05-10T22:43:52.652Z,49.53
2023-05-10T22:46:19.025Z,49.80
2023-05-10T22:48:45.350Z,49.23
2023-05-10T22:51:11.932Z,49.21
2023-05-10T22:53:38.224Z,47.81
2023-05-10T22:56:04.535Z,47.63
2023-05-10T22:58:31.064Z,47.60
2023-05-10T23:00:57.359Z,48.70
2023-05-10T23:03:23.719Z,48.81
2023-05-10T23:05:50.034Z,49.75
2023-05-10T23:08:16.446Z,49.96
2023-05-10T23:10:42.770Z,49.62
2023-05-10T23:13:09.117Z,49.72
2023-05-10T23:15:36.169Z,50.01
2023-05-10T23:18:02.571Z,49.76
2023-05-10T23:20:28.914Z,49.34
2023-05-10T23:22:56.141Z,49.31
2023-05-10T23:25:22.586Z,49.70
2023-05-10T23:27:48.872Z,50.21
2023-05-10T23:30:15.262Z,50.50
2023-05-10T23:32:41.607Z,49.13
2023-05-10T23:35:08.302Z,48.73
2023-05-10T23:37:34.695Z,49.90
2023-05-10T23:40:01.877Z,50.05
2023-05-10T23:42:28.209Z,49.91
2023-05-10T23:44:54.484Z,49.96
2023-05-10T23:47:20.914Z,49.75
2023-05-10T23:49:47.274Z,49.11
2023-05-10T23:52:13.964Z,48.31
2023-05-10T23:54:40.267Z,48.06
2023-05-10T23:57:06.605Z,47.75
2023-05-10T23:59:32.907Z,47.75
